sensor_id;sensor_type;location;lat;lon;timestamp;temperature;humidity
13817;DHT22;6979;52.116;5.286;2023-05-10T00:07:11;17.10;99.90
13817;DHT22;6979;52.116;5.286;2023-05-10T00:09:39;17.10;99.90
13817;DHT22;6979;52.116;5.286;2023-05-10T00:12:06;17.00;99.90
13817;DHT22;6979;52.116;5.286;2023-05-10T00:14:39;17.00;99.90
13817;DHT22;6979;52.116;5.286;2023-05-10T00:17:08;17.00;99.90
13817;DHT22;6979;52.116;5.286;2023-05-10T00:19:37;17.10;99.90
13817;DHT22;6979;52.116;5.286;2023-05-10T00:36:49;17.00;99.90
13817;DHT22;6979;52.116;5.286;2023-05-10T00:42:54;17.00;99.90
13817;DHT22;6979;52.116;5.286;2023-05-10T00:45:25;17.00;99.90
13817;DHT22;6979;52.116;5.286;2023-05-10T01:07:28;17.00;99.90
13817;DHT22;6979;52.116;5.286;2023-05-10T01:10:09;17.00;99.90
13817;DHT22;6979;52.116;5.286;2023-05-10T01:15:39;16.90;99.90
13817;DHT22;6979;52.116;5.286;2023-05-10T02:08:01;17.00;99.90
13817;DHT22;6979;52.116;5.286;2023-05-10T02:10:30;17.00;99.90
13817;DHT22;6979;52.116;5.286;2023-05-10T02:13:03;17.00;99.90
13817;DHT22;6979;52.116;5.286;2023-05-10T02:15:33;17.00;99.90
13817;DHT22;6979;52.116;5.286;2023-05-10T02:18:04;17.00;99.90
13817;DHT22;6979;52.116;5.286;2023-05-10T02:20:33;17.00;99.90
13817;DHT22;6979;52.116;5.286;2023-05-10T02:23:38;17.00;99.90
13817;DHT22;6979;52.116;5.286;2023-05-10T02:26:09;17.00;99.90
13817;DHT22;6979;52.116;5.286;2023-05-10T02:34:17;17.00;99.90
13817;DHT22;6979;52.116;5.286;2023-05-10T02:36:58;17.00;99.90
13817;DHT22;6979;52.116;5.286;2023-05-10T02:39:29;16.90;99.90
13817;DHT22;6979;52.116;5.286;2023-05-10T02:41:59;16.90;99.90
13817;DHT22;6979;52.116;5.286;2023-05-10T02:44:29;16.90;99.90
13817;DHT22;6979;52.116;5.286;2023-05-10T02:46:58;16.90;99.90
13817;DHT22;6979;52.116;5.286;2023-05-10T02:49:27;16.90;99.90
13817;DHT22;6979;52.116;5.286;2023-05-10T02:51:57;16.90;99.90
13817;DHT22;6979;52.116;5.286;2023-05-10T02:54:30;16.80;99.90
13817;DHT22;6979;52.116;5.286;2023-05-10T02:57:03;16.80;99.90
13817;DHT22;6979;52.116;5.286;2023-05-10T02:59:31;16.80;99.90
13817;DHT22;6979;52.116;5.286;2023-05-10T03:01:58;16.80;99.90
13817;DHT22;6979;52.116;5.286;2023-05-10T03:04:27;16.80;99.90
13817;DHT22;6979;52.116;5.286;2023-05-10T03:10:13;16.80;99.90
13817;DHT22;6979;52.116;5.286;2023-05-10T03:12:52;16.80;99.90
13817;DHT22;6979;52.116;5.286;2023-05-10T03:15:30;16.80;99.90
13817;DHT22;6979;52.116;5.286;2023-05-10T03:18:03;16.80;99.90
13817;DHT22;6979;52.116;5.286;2023-05-10T03:20:36;16.80;99.90
13817;DHT22;6979;52.116;5.286;2023-05-10T03:23:10;16.70;99.90
13817;DHT22;6979;52.116;5.286;2023-05-10T03:25:39;16.70;99.90
13817;DHT22;6979;52.116;5.286;2023-05-10T03:28:09;16.70;99.90
13817;DHT22;6979;52.116;5.286;2023-05-10T03:30:37;16.70;99.90
13817;DHT22;6979;52.116;5.286;2023-05-10T03:33:28;16.70;99.90
13817;DHT22;6979;52.116;5.286;2023-05-10T03:35:56;16.70;99.90
13817;DHT22;6979;52.116;5.286;2023-05-10T03:38:24;16.70;99.90
13817;DHT22;6979;52.116;5.286;2023-05-10T03:40:51;16.70;99.90
13817;DHT22;6979;52.116;5.286;2023-05-10T03:43:18;16.70;99.90
13817;DHT22;6979;52.116;5.286;2023-05-10T03:45:45;16.70;99.90
13817;DHT22;6979;52.116;5.286;2023-05-10T03:48:24;16.70;99.90
13817;DHT22;6979;52.116;5.286;2023-05-10T03:51:00;16.70;99.90
13817;DHT22;6979;52.116;5.286;2023-05-10T03:53:27;16.70;99.90
13817;DHT22;6979;52.116;5.286;2023-05-10T03:55:54;16.70;99.90
13817;DHT22;6979;52.116;5.286;2023-05-10T03:58:21;16.70;99.90
13817;DHT22;6979;52.116;5.286;2023-05-10T04:00:48;16.70;99.90
13817;DHT22;6979;52.116;5.286;2023-05-10T04:03:15;16.70;99.90
13817;DHT22;6979;52.116;5.286;2023-05-10T04:05:42;16.70;99.90
13817;DHT22;6979;52.116;5.286;2023-05-10T04:08:11;16.70;99.90
13817;DHT22;6979;52.116;5.286;2023-05-10T04:10:37;16.70;99.90
13817;DHT22;6979;52.116;5.286;2023-05-10T04:13:05;16.60;99.90
13817;DHT22;6979;52.116;5.286;2023-05-10T04:15:32;16.60;99.90
13817;DHT22;6979;52.116;5.286;2023-05-10T04:17:59;16.60;99.90
13817;DHT22;6979;52.116;5.286;2023-05-10T04:23:13;16.70;99.90
13817;DHT22;6979;52.116;5.286;2023-05-10T04:25:44;16.70;99.90
13817;DHT22;6979;52.116;5.286;2023-05-10T04:32:44;16.70;99.90
13817;DHT22;6979;52.116;5.286;2023-05-10T04:35:12;16.70;99.90
13817;DHT22;6979;52.116;5.286;2023-05-10T04:41:20;16.70;99.90
13817;DHT22;6979;52.116;5.286;2023-05-10T04:43:54;16.70;99.90
13817;DHT22;6979;52.116;5.286;2023-05-10T04:46:31;16.70;99.90
13817;DHT22;6979;52.116;5.286;2023-05-10T04:49:06;16.70;99.90
13817;DHT22;6979;52.116;5.286;2023-05-10T04:51:54;16.80;99.90
13817;DHT22;6979;52.116;5.286;2023-05-10T04:54:30;16.80;99.90
13817;DHT22;6979;52.116;5.286;2023-05-10T04:57:22;16.80;99.90
13817;DHT22;6979;52.116;5.286;2023-05-10T05:00:04;16.80;99.90
13817;DHT22;6979;52.116;5.286;2023-05-10T05:02:46;16.80;99.90
13817;DHT22;6979;52.116;5.286;2023-05-10T05:05:13;16.80;99.90
13817;DHT22;6979;52.116;5.286;2023-05-10T05:07:40;16.80;99.90
13817;DHT22;6979;52.116;5.286;2023-05-10T05:10:08;16.90;99.90
13817;DHT22;6979;52.116;5.286;2023-05-10T05:12:51;16.90;99.90
13817;DHT22;6979;52.116;5.286;2023-05-10T05:15:18;16.90;99.90
13817;DHT22;6979;52.116;5.286;2023-05-10T05:17:45;16.90;99.90
13817;DHT22;6979;52.116;5.286;2023-05-10T05:20:18;17.00;99.90
13817;DHT22;6979;52.116;5.286;2023-05-10T05:22:45;17.00;99.90
13817;DHT22;6979;52.116;5.286;2023-05-10T05:25:18;17.00;99.90
13817;DHT22;6979;52.116;5.286;2023-05-10T05:27:45;17.10;99.90
13817;DHT22;6979;52.116;5.286;2023-05-10T05:30:21;17.00;99.90
13817;DHT22;6979;52.116;5.286;2023-05-10T05:32:48;17.00;99.90
13817;DHT22;6979;52.116;5.286;2023-05-10T05:35:15;17.10;99.90
13817;DHT22;6979;52.116;5.286;2023-05-10T05:37:42;17.10;99.90
13817;DHT22;6979;52.116;5.286;2023-05-10T05:40:14;17.10;99.90
13817;DHT22;6979;52.116;5.286;2023-05-10T05:42:41;17.10;99.90
13817;DHT22;6979;52.116;5.286;2023-05-10T05:45:15;17.10;99.90
13817;DHT22;6979;52.116;5.286;2023-05-10T05:47:42;17.10;99.90
13817;DHT22;6979;52.116;5.286;2023-05-10T05:50:10;17.10;99.90
13817;DHT22;6979;52.116;5.286;2023-05-10T05:52:37;17.10;99.90
13817;DHT22;6979;52.116;5.286;2023-05-10T05:55:27;17.10;99.90
13817;DHT22;6979;52.116;5.286;2023-05-10T05:58:12;17.00;99.90
13817;DHT22;6979;52.116;5.286;2023-05-10T06:01:00;17.00;99.90
13817;DHT22;6979;52.116;5.286;2023-05-10T06:03:39;17.00;99.90
13817;DHT22;6979;52.116;5.286;2023-05-10T06:08:46;17.00;99.90
13817;DHT22;6979;52.116;5.286;2023-05-10T06:15:00;16.90;99.90
13817;DHT22;6979;52.116;5.286;2023-05-10T06:17:28;16.90;99.90
13817;DHT22;6979;52.116;5.286;2023-05-10T06:24:18;16.90;99.90
13817;DHT22;6979;52.116;5.286;2023-05-10T06:26:45;16.80;99.90
13817;DHT22;6979;52.116;5.286;2023-05-10T06:29:11;16.80;99.90
13817;DHT22;6979;52.116;5.286;2023-05-10T06:31:43;16.80;99.90
13817;DHT22;6979;52.116;5.286;2023-05-10T06:34:12;16.80;99.90
13817;DHT22;6979;52.116;5.286;2023-05-10T06:36:39;16.80;99.90
13817;DHT22;6979;52.116;5.286;2023-05-10T06:39:09;16.80;99.90
13817;DHT22;6979;52.116;5.286;2023-05-10T06:41:45;16.90;99.90
13817;DHT22;6979;52.116;5.286;2023-05-10T06:44:20;16.90;99.90
13817;DHT22;6979;52.116;5.286;2023-05-10T06:46:47;16.90;99.90
13817;DHT22;6979;52.116;5.286;2023-05-10T06:49:17;17.00;99.90
13817;DHT22;6979;52.116;5.286;2023-05-10T06:51:44;17.00;99.90
13817;DHT22;6979;52.116;5.286;2023-05-10T06:54:26;17.10;99.90
13817;DHT22;6979;52.116;5.286;2023-05-10T06:56:53;17.10;99.90
13817;DHT22;6979;52.116;5.286;2023-05-10T07:02:09;17.10;99.90
13817;DHT22;6979;52.116;5.286;2023-05-10T07:04:47;17.10;99.90
13817;DHT22;6979;52.116;5.286;2023-05-10T07:07:28;17.20;99.90
13817;DHT22;6979;52.116;5.286;2023-05-10T07:09:55;17.20;99.90
13817;DHT22;6979;52.116;5.286;2023-05-10T07:12:23;17.20;99.90
13817;DHT22;6979;52.116;5.286;2023-05-10T07:14:50;17.20;99.90
13817;DHT22;6979;52.116;5.286;2023-05-10T08:10:08;17.30;99.90
13817;DHT22;6979;52.116;5.286;2023-05-10T08:15:18;17.30;99.90
13817;DHT22;6979;52.116;5.286;2023-05-10T08:18:33;17.40;99.90
13817;DHT22;6979;52.116;5.286;2023-05-10T08:49:31;17.90;99.90
13817;DHT22;6979;52.116;5.286;2023-05-10T08:52:02;17.90;99.90
13817;DHT22;6979;52.116;5.286;2023-05-10T09:30:34;18.40;99.90
13817;DHT22;6979;52.116;5.286;2023-05-10T09:33:01;18.40;99.90
13817;DHT22;6979;52.116;5.286;2023-05-10T09:35:29;18.50;99.90
13817;DHT22;6979;52.116;5.286;2023-05-10T09:37:59;18.50;99.90
13817;DHT22;6979;52.116;5.286;2023-05-10T09:40:28;18.50;99.90
13817;DHT22;6979;52.116;5.286;2023-05-10T09:42:56;18.50;99.90
13817;DHT22;6979;52.116;5.286;2023-05-10T09:45:24;18.50;99.90
13817;DHT22;6979;52.116;5.286;2023-05-10T09:47:54;18.50;99.90
13817;DHT22;6979;52.116;5.286;2023-05-10T09:50:43;18.50;99.90
13817;DHT22;6979;52.116;5.286;2023-05-10T09:53:14;18.50;99.90
13817;DHT22;6979;52.116;5.286;2023-05-10T09:55:46;18.50;99.90
13817;DHT22;6979;52.116;5.286;2023-05-10T09:58:17;18.60;99.90
13817;DHT22;6979;52.116;5.286;2023-05-10T10:00:46;18.60;99.90
13817;DHT22;6979;52.116;5.286;2023-05-10T10:03:19;18.70;99.90
13817;DHT22;6979;52.116;5.286;2023-05-10T10:05:47;18.70;99.90
13817;DHT22;6979;52.116;5.286;2023-05-10T10:08:15;18.70;99.90
13817;DHT22;6979;52.116;5.286;2023-05-10T10:10:42;18.80;99.90
13817;DHT22;6979;52.116;5.286;2023-05-10T10:13:09;18.80;99.90
13817;DHT22;6979;52.116;5.286;2023-05-10T10:15:37;18.80;99.90
13817;DHT22;6979;52.116;5.286;2023-05-10T10:18:06;18.80;99.90
13817;DHT22;6979;52.116;5.286;2023-05-10T10:20:37;18.80;99.90
13817;DHT22;6979;52.116;5.286;2023-05-10T10:23:05;18.80;99.90
13817;DHT22;6979;52.116;5.286;2023-05-10T10:25:32;18.90;99.90
13817;DHT22;6979;52.116;5.286;2023-05-10T10:28:09;18.90;99.90
13817;DHT22;6979;52.116;5.286;2023-05-10T10:30:42;18.90;99.90
13817;DHT22;6979;52.116;5.286;2023-05-10T10:33:40;18.90;99.90
13817;DHT22;6979;52.116;5.286;2023-05-10T10:36:15;19.00;99.90
13817;DHT22;6979;52.116;5.286;2023-05-10T10:39:00;19.00;99.90
13817;DHT22;6979;52.116;5.286;2023-05-10T10:41:29;19.10;99.90
13817;DHT22;6979;52.116;5.286;2023-05-10T10:44:33;19.10;99.90
13817;DHT22;6979;52.116;5.286;2023-05-10T10:47:10;19.10;99.90
13817;DHT22;6979;52.116;5.286;2023-05-10T10:49:43;19.20;99.90
13817;DHT22;6979;52.116;5.286;2023-05-10T10:52:22;19.20;99.90
13817;DHT22;6979;52.116;5.286;2023-05-10T10:54:52;19.20;99.90
13817;DHT22;6979;52.116;5.286;2023-05-10T10:57:21;19.20;99.90
13817;DHT22;6979;52.116;5.286;2023-05-10T10:59:48;19.20;99.90
13817;DHT22;6979;52.116;5.286;2023-05-10T11:02:42;19.20;99.90
13817;DHT22;6979;52.116;5.286;2023-05-10T11:05:25;19.20;99.90
13817;DHT22;6979;52.116;5.286;2023-05-10T11:07:54;19.20;99.90
13817;DHT22;6979;52.116;5.286;2023-05-10T11:10:22;19.30;99.90
13817;DHT22;6979;52.116;5.286;2023-05-10T11:12:53;19.30;99.90
13817;DHT22;6979;52.116;5.286;2023-05-10T11:15:28;19.30;99.90
13817;DHT22;6979;52.116;5.286;2023-05-10T11:17:56;19.40;99.90
13817;DHT22;6979;52.116;5.286;2023-05-10T11:20:23;19.50;99.90
13817;DHT22;6979;52.116;5.286;2023-05-10T11:23:11;19.60;99.90
13817;DHT22;6979;52.116;5.286;2023-05-10T11:25:42;19.80;99.90
13817;DHT22;6979;52.116;5.286;2023-05-10T11:28:13;19.90;99.90
13817;DHT22;6979;52.116;5.286;2023-05-10T11:30:42;20.00;99.90
13817;DHT22;6979;52.116;5.286;2023-05-10T11:33:14;20.10;99.90
13817;DHT22;6979;52.116;5.286;2023-05-10T11:35:41;20.20;99.90
13817;DHT22;6979;52.116;5.286;2023-05-10T11:38:11;20.20;99.90
13817;DHT22;6979;52.116;5.286;2023-05-10T11:40:39;20.20;99.90
13817;DHT22;6979;52.116;5.286;2023-05-10T11:43:08;20.30;99.90
13817;DHT22;6979;52.116;5.286;2023-05-10T11:45:35;20.20;99.90
13817;DHT22;6979;52.116;5.286;2023-05-10T11:48:03;20.20;99.90
13817;DHT22;6979;52.116;5.286;2023-05-10T11:50:40;20.20;99.90
13817;DHT22;6979;52.116;5.286;2023-05-10T11:53:09;20.10;99.90
13817;DHT22;6979;52.116;5.286;2023-05-10T11:55:37;20.10;99.90
13817;DHT22;6979;52.116;5.286;2023-05-10T11:58:04;20.10;99.90
13817;DHT22;6979;52.116;5.286;2023-05-10T12:00:32;20.10;99.90
13817;DHT22;6979;52.116;5.286;2023-05-10T12:03:02;20.10;99.90
13817;DHT22;6979;52.116;5.286;2023-05-10T12:05:32;20.10;99.90
13817;DHT22;6979;52.116;5.286;2023-05-10T12:08:15;20.00;99.90
13817;DHT22;6979;52.116;5.286;2023-05-10T12:10:42;20.10;99.90
13817;DHT22;6979;52.116;5.286;2023-05-10T12:13:12;20.10;99.90
13817;DHT22;6979;52.116;5.286;2023-05-10T12:15:40;20.20;99.90
13817;DHT22;6979;52.116;5.286;2023-05-10T12:18:09;20.30;99.90
13817;DHT22;6979;52.116;5.286;2023-05-10T12:20:37;20.40;99.90
13817;DHT22;6979;52.116;5.286;2023-05-10T12:23:05;20.60;99.90
13817;DHT22;6979;52.116;5.286;2023-05-10T12:25:37;20.90;99.90
13817;DHT22;6979;52.116;5.286;2023-05-10T12:28:05;21.10;99.90
13817;DHT22;6979;52.116;5.286;2023-05-10T12:30:34;21.30;99.90
13817;DHT22;6979;52.116;5.286;2023-05-10T12:33:07;21.50;99.90
13817;DHT22;6979;52.116;5.286;2023-05-10T12:35:44;21.70;99.90
13817;DHT22;6979;52.116;5.286;2023-05-10T12:38:26;21.80;99.90
13817;DHT22;6979;52.116;5.286;2023-05-10T13:01:21;21.40;99.90
13817;DHT22;6979;52.116;5.286;2023-05-10T13:11:16;20.80;99.90
13817;DHT22;6979;52.116;5.286;2023-05-10T13:12:18;20.50;99.90
13817;DHT22;6979;52.116;5.286;2023-05-10T13:23:54;19.40;99.90
13817;DHT22;6979;52.116;5.286;2023-05-10T13:26:21;19.30;99.90
13817;DHT22;6979;52.116;5.286;2023-05-10T13:28:49;19.10;99.90
13817;DHT22;6979;52.116;5.286;2023-05-10T13:31:17;18.90;99.90
13817;DHT22;6979;52.116;5.286;2023-05-10T13:33:44;18.80;99.90
13817;DHT22;6979;52.116;5.286;2023-05-10T13:36:11;18.80;99.90
13817;DHT22;6979;52.116;5.286;2023-05-10T13:38:43;18.70;99.90
13817;DHT22;6979;52.116;5.286;2023-05-10T14:44:56;18.50;99.90
13817;DHT22;6979;52.116;5.286;2023-05-10T14:48:03;18.50;99.90
13817;DHT22;6979;52.116;5.286;2023-05-10T14:53:50;18.50;99.90
13817;DHT22;6979;52.116;5.286;2023-05-10T14:56:47;18.50;99.90
13817;DHT22;6979;52.116;5.286;2023-05-10T17:20:22;20.00;99.90
13817;DHT22;6979;52.116;5.286;2023-05-10T17:23:30;20.10;99.90
13817;DHT22;6979;52.116;5.286;2023-05-10T17:45:00;20.40;99.90
13817;DHT22;6979;52.116;5.286;2023-05-10T17:47:53;20.40;99.90
13817;DHT22;6979;52.116;5.286;2023-05-10T17:53:08;20.40;99.90
13817;DHT22;6979;52.116;5.286;2023-05-10T18:05:27;20.20;99.90
13817;DHT22;6979;52.116;5.286;2023-05-10T18:08:04;20.10;99.90
13817;DHT22;6979;52.116;5.286;2023-05-10T18:10:41;20.10;99.90
13817;DHT22;6979;52.116;5.286;2023-05-10T18:13:27;20.10;99.90
13817;DHT22;6979;52.116;5.286;2023-05-10T18:19:39;20.10;99.90
13817;DHT22;6979;52.116;5.286;2023-05-10T18:32:22;20.00;99.90
13817;DHT22;6979;52.116;5.286;2023-05-10T20:00:14;19.00;99.90
13817;DHT22;6979;52.116;5.286;2023-05-10T20:24:55;18.70;99.90
13817;DHT22;6979;52.116;5.286;2023-05-10T20:27:23;18.60;99.90
13817;DHT22;6979;52.116;5.286;2023-05-10T20:29:55;18.60;99.90
13817;DHT22;6979;52.116;5.286;2023-05-10T20:32:22;18.50;99.90
13817;DHT22;6979;52.116;5.286;2023-05-10T20:34:49;18.40;99.90
13817;DHT22;6979;52.116;5.286;2023-05-10T20:37:16;18.40;99.90
13817;DHT22;6979;52.116;5.286;2023-05-10T20:39:49;18.40;99.90
13817;DHT22;6979;52.116;5.286;2023-05-10T20:42:18;18.40;99.90
13817;DHT22;6979;52.116;5.286;2023-05-10T20:44:46;18.30;99.90
13817;DHT22;6979;52.116;5.286;2023-05-10T20:47:18;18.30;99.90
13817;DHT22;6979;52.116;5.286;2023-05-10T20:49:48;18.30;99.90
13817;DHT22;6979;52.116;5.286;2023-05-10T20:52:16;18.30;99.90
13817;DHT22;6979;52.116;5.286;2023-05-10T20:54:43;18.20;99.90
13817;DHT22;6979;52.116;5.286;2023-05-10T20:57:10;18.20;99.90
13817;DHT22;6979;52.116;5.286;2023-05-10T20:59:39;18.20;99.90
13817;DHT22;6979;52.116;5.286;2023-05-10T21:02:06;18.20;99.90
13817;DHT22;6979;52.116;5.286;2023-05-10T21:04:33;18.20;99.90
13817;DHT22;6979;52.116;5.286;2023-05-10T21:07:00;18.20;99.90
13817;DHT22;6979;52.116;5.286;2023-05-10T21:09:27;18.20;99.90
13817;DHT22;6979;52.116;5.286;2023-05-10T21:11:54;18.20;99.90
13817;DHT22;6979;52.116;5.286;2023-05-10T21:14:20;18.20;99.90
13817;DHT22;6979;52.116;5.286;2023-05-10T21:16:49;18.20;99.90
13817;DHT22;6979;52.116;5.286;2023-05-10T21:19:16;18.20;99.90
13817;DHT22;6979;52.116;5.286;2023-05-10T21:21:43;18.20;99.90
13817;DHT22;6979;52.116;5.286;2023-05-10T21:24:10;18.20;99.90
13817;DHT22;6979;52.116;5.286;2023-05-10T21:26:37;18.20;99.90
13817;DHT22;6979;52.116;5.286;2023-05-10T21:29:04;18.20;99.90
13817;DHT22;6979;52.116;5.286;2023-05-10T21:31:31;18.20;99.90
13817;DHT22;6979;52.116;5.286;2023-05-10T21:33:59;18.10;99.90
13817;DHT22;6979;52.116;5.286;2023-05-10T21:36:26;18.10;99.90
13817;DHT22;6979;52.116;5.286;2023-05-10T21:38:53;18.10;99.90
13817;DHT22;6979;52.116;5.286;2023-05-10T21:41:20;18.00;99.90
13817;DHT22;6979;52.116;5.286;2023-05-10T21:43:47;18.00;99.90
13817;DHT22;6979;52.116;5.286;2023-05-10T21:46:14;18.00;99.90
13817;DHT22;6979;52.116;5.286;2023-05-10T21:48:41;18.00;99.90
13817;DHT22;6979;52.116;5.286;2023-05-10T21:51:09;18.00;99.90
13817;DHT22;6979;52.116;5.286;2023-05-10T21:53:37;18.00;99.90
13817;DHT22;6979;52.116;5.286;2023-05-10T21:56:05;17.90;99.90
13817;DHT22;6979;52.116;5.286;2023-05-10T21:58:32;17.90;99.90
13817;DHT22;6979;52.116;5.286;2023-05-10T22:01:02;17.90;99.90
13817;DHT22;6979;52.116;5.286;2023-05-10T22:03:30;17.90;99.90
13817;DHT22;6979;52.116;5.286;2023-05-10T22:05:57;17.90;99.90
13817;DHT22;6979;52.116;5.286;2023-05-10T22:08:29;17.80;99.90
13817;DHT22;6979;52.116;5.286;2023-05-10T22:10:57;17.80;99.90
13817;DHT22;6979;52.116;5.286;2023-05-10T22:13:24;17.80;99.90
13817;DHT22;6979;52.116;5.286;2023-05-10T22:15:51;17.80;99.90
13817;DHT22;6979;52.116;5.286;2023-05-10T22:18:18;17.70;99.90
13817;DHT22;6979;52.116;5.286;2023-05-10T22:20:45;17.70;99.90
13817;DHT22;6979;52.116;5.286;2023-05-10T22:23:13;17.60;99.90
13817;DHT22;6979;52.116;5.286;2023-05-10T22:25:41;17.60;99.90
13817;DHT22;6979;52.116;5.286;2023-05-10T22:28:08;17.60;99.90
13817;DHT22;6979;52.116;5.286;2023-05-10T22:30:34;17.60;99.90
13817;DHT22;6979;52.116;5.286;2023-05-10T22:33:01;17.50;99.90
13817;DHT22;6979;52.116;5.286;2023-05-10T22:35:30;17.60;99.90
13817;DHT22;6979;52.116;5.286;2023-05-10T22:37:57;17.60;99.90
13817;DHT22;6979;52.116;5.286;2023-05-10T22:40:23;17.50;99.90
13817;DHT22;6979;52.116;5.286;2023-05-10T22:42:52;17.50;99.90
13817;DHT22;6979;52.116;5.286;2023-05-10T22:45:18;17.50;99.90
13817;DHT22;6979;52.116;5.286;2023-05-10T22:47:45;17.50;99.90
13817;DHT22;6979;52.116;5.286;2023-05-10T22:50:13;17.50;99.90
13817;DHT22;6979;52.116;5.286;2023-05-10T22:52:40;17.50;99.90
13817;DHT22;6979;52.116;5.286;2023-05-10T22:55:07;17.40;99.90
13817;DHT22;6979;52.116;5.286;2023-05-10T22:58:01;17.40;99.90
13817;DHT22;6979;52.116;5.286;2023-05-10T23:00:48;17.40;99.90
13817;DHT22;6979;52.116;5.286;2023-05-10T23:03:17;17.40;99.90
13817;DHT22;6979;52.116;5.286;2023-05-10T23:06:15;17.40;99.90
13817;DHT22;6979;52.116;5.286;2023-05-10T23:08:46;17.40;99.90
13817;DHT22;6979;52.116;5.286;2023-05-10T23:11:13;17.40;99.90
13817;DHT22;6979;52.116;5.286;2023-05-10T23:13:42;17.40;99.90
13817;DHT22;6979;52.116;5.286;2023-05-10T23:16:09;17.40;99.90
13817;DHT22;6979;52.116;5.286;2023-05-10T23:18:37;17.40;99.90
13817;DHT22;6979;52.116;5.286;2023-05-10T23:21:29;17.40;99.90
13817;DHT22;6979;52.116;5.286;2023-05-10T23:23:56;17.40;99.90
13817;DHT22;6979;52.116;5.286;2023-05-10T23:26:29;17.40;99.90
13817;DHT22;6979;52.116;5.286;2023-05-10T23:29:07;17.40;99.90
13817;DHT22;6979;52.116;5.286;2023-05-10T23:31:34;17.40;99.90
13817;DHT22;6979;52.116;5.286;2023-05-10T23:34:04;17.40;99.90
13817;DHT22;6979;52.116;5.286;2023-05-10T23:36:56;17.40;99.90
13817;DHT22;6979;52.116;5.286;2023-05-10T23:39:44;17.40;99.90
13817;DHT22;6979;52.116;5.286;2023-05-10T23:42:11;17.30;99.90
13817;DHT22;6979;52.116;5.286;2023-05-10T23:44:39;17.30;99.90
13817;DHT22;6979;52.116;5.286;2023-05-10T23:47:06;17.30;99.90
13817;DHT22;6979;52.116;5.286;2023-05-10T23:49:34;17.30;99.90
13817;DHT22;6979;52.116;5.286;2023-05-10T23:52:01;17.30;99.90
13817;DHT22;6979;52.116;5.286;2023-05-10T23:54:29;17.30;99.90
13817;DHT22;6979;52.116;5.286;2023-05-10T23:56:55;17.30;99.90
13817;DHT22;6979;52.116;5.286;2023-05-10T23:59:22;17.30;99.90
